createdAt,value
2019-04-30T00:01:18.882Z,79.61
2019-04-30T00:03:55.741Z,79.72
2019-04-30T00:06:34.097Z,79.52
2019-04-30T00:09:00.135Z,79.51
2019-04-30T00:11:31.644Z,79.51
2019-04-30T00:14:05.508Z,79.70
2019-04-30T00:16:39.880Z,79.84
2019-04-30T00:19:10.719Z,79.28
2019-04-30T00:21:42.730Z,79.49
2019-04-30T00:24:13.649Z,79.52
2019-04-30T00:26:51.844Z,79.77
2019-04-30T00:29:26.542Z,79.61
2019-04-30T00:31:51.444Z,79.74
2019-04-30T00:34:24.888Z,79.63
2019-04-30T00:36:56.106Z,79.86
2019-04-30T00:39:27.274Z,79.84
2019-04-30T00:41:58.723Z,80.05
2019-04-30T00:44:29.618Z,79.91
2019-04-30T00:47:04.921Z,80.17
2019-04-30T00:49:35.067Z,80.02
2019-04-30T00:52:06.719Z,79.79
2019-04-30T00:54:37.547Z,79.83
2019-04-30T00:57:08.625Z,80.12
2019-04-30T00:59:39.814Z,79.81
2019-04-30T01:02:32.151Z,79.90
2019-04-30T01:05:09.718Z,79.92
2019-04-30T01:07:48.679Z,79.76
2019-04-30T01:10:15.301Z,79.93
2019-04-30T01:12:49.991Z,79.94
2019-04-30T01:15:21.079Z,79.70
2019-04-30T01:17:53.947Z,79.63
2019-04-30T01:20:31.397Z,79.51
2019-04-30T01:23:03.068Z,79.79
2019-04-30T01:25:33.735Z,79.72
2019-04-30T01:28:06.226Z,79.50
2019-04-30T01:30:39.297Z,79.73
2019-04-30T01:33:11.144Z,79.72
2019-04-30T01:35:42.660Z,79.63
2019-04-30T01:38:13.573Z,79.58
2019-04-30T01:40:47.427Z,79.94
2019-04-30T01:43:23.200Z,79.62
2019-04-30T01:45:51.426Z,79.44
2019-04-30T01:48:23.019Z,79.62
2019-04-30T01:50:54.393Z,79.59
2019-04-30T01:53:25.800Z,79.75
2019-04-30T01:56:10.387Z,79.78
2019-04-30T01:58:43.133Z,79.70
2019-04-30T02:01:19.208Z,79.50
2019-04-30T02:03:50.793Z,79.40
2019-04-30T02:06:22.301Z,79.26
2019-04-30T02:08:53.794Z,79.21
2019-04-30T02:11:25.259Z,79.40
2019-04-30T02:13:56.836Z,79.21
2019-04-30T02:16:28.923Z,79.33
2019-04-30T02:19:00.630Z,79.19
2019-04-30T02:21:33.452Z,79.10
2019-04-30T02:24:05.090Z,78.88
2019-04-30T02:26:38.390Z,78.68
2019-04-30T02:29:09.753Z,78.66
2019-04-30T02:31:40.884Z,78.57
2019-04-30T02:34:13.796Z,78.70
2019-04-30T02:37:02.245Z,78.42
2019-04-30T02:39:33.641Z,78.48
2019-04-30T02:42:05.138Z,78.48
2019-04-30T02:44:40.553Z,78.47
2019-04-30T02:47:11.432Z,78.59
2019-04-30T02:49:43.386Z,78.39
2019-04-30T02:52:19.558Z,78.50
2019-04-30T02:54:50.595Z,78.32
2019-04-30T02:57:23.513Z,78.25
2019-04-30T03:00:09.889Z,78.44
2019-04-30T03:02:41.855Z,78.26
2019-04-30T03:05:14.050Z,78.20
2019-04-30T03:07:45.763Z,78.40
2019-04-30T03:10:19.779Z,78.31
2019-04-30T03:12:50.456Z,78.29
2019-04-30T03:15:22.853Z,78.55
2019-04-30T03:18:12.413Z,78.38
2019-04-30T03:20:59.866Z,78.28
2019-04-30T03:23:30.806Z,78.08
2019-04-30T03:26:02.657Z,78.11
2019-04-30T03:28:33.589Z,78.28
2019-04-30T03:31:05.042Z,78.45
2019-04-30T03:33:36.536Z,78.39
2019-04-30T03:36:11.940Z,78.28
2019-04-30T03:38:42.802Z,78.23
2019-04-30T03:41:14.141Z,78.01
2019-04-30T03:43:45.561Z,77.80
2019-04-30T03:46:19.472Z,77.94
2019-04-30T03:48:51.117Z,77.55
2019-04-30T03:51:22.008Z,77.43
2019-04-30T03:53:53.197Z,77.68
2019-04-30T03:56:25.768Z,77.37
2019-04-30T03:59:00.252Z,77.39
2019-04-30T04:01:39.925Z,77.38
2019-04-30T04:04:30.992Z,77.50
2019-04-30T04:07:04.182Z,77.34
2019-04-30T04:09:46.045Z,77.25
2019-04-30T04:12:29.998Z,77.38
2019-04-30T04:15:03.810Z,77.04
2019-04-30T04:17:35.414Z,76.76
2019-04-30T04:20:06.942Z,76.79
2019-04-30T04:22:40.292Z,76.85
2019-04-30T04:25:13.407Z,76.84
2019-04-30T04:27:45.025Z,76.89
2019-04-30T04:30:16.489Z,76.95
2019-04-30T04:32:50.085Z,76.97
2019-04-30T04:35:21.019Z,76.97
2019-04-30T04:37:52.590Z,77.08
2019-04-30T04:40:23.375Z,76.91
2019-04-30T04:42:54.586Z,77.02
2019-04-30T04:45:26.096Z,76.66
2019-04-30T04:47:59.755Z,76.49
2019-04-30T04:50:30.834Z,76.21
2019-04-30T04:53:02.213Z,75.92
2019-04-30T04:55:34.770Z,75.80
2019-04-30T04:58:05.721Z,75.58
2019-04-30T05:00:39.086Z,75.63
2019-04-30T05:03:20.719Z,75.59
2019-04-30T05:05:52.097Z,75.36
2019-04-30T05:08:23.492Z,75.25
2019-04-30T05:11:12.029Z,75.11
2019-04-30T05:14:08.348Z,74.94
2019-04-30T05:16:48.774Z,74.65
2019-04-30T05:19:21.475Z,73.89
2019-04-30T05:21:53.945Z,73.76
2019-04-30T05:24:25.417Z,73.86
2019-04-30T05:26:56.357Z,73.73
2019-04-30T05:29:28.951Z,73.37
2019-04-30T05:32:00.546Z,73.11
2019-04-30T05:34:31.992Z,73.06
2019-04-30T05:37:03.510Z,72.97
2019-04-30T05:39:34.298Z,72.70
2019-04-30T05:42:05.468Z,72.29
2019-04-30T05:44:36.202Z,71.72
2019-04-30T05:47:09.278Z,71.95
2019-04-30T05:49:41.044Z,71.86
2019-04-30T05:52:12.477Z,71.67
2019-04-30T05:54:44.142Z,71.14
2019-04-30T05:57:15.666Z,70.95
2019-04-30T05:59:48.756Z,70.71
2019-04-30T06:02:20.105Z,70.98
2019-04-30T06:04:50.980Z,71.22
2019-04-30T06:07:22.020Z,71.67
2019-04-30T06:10:00.808Z,71.55
2019-04-30T06:12:49.305Z,71.24
2019-04-30T06:15:29.059Z,70.93
2019-04-30T06:18:10.423Z,70.93
2019-04-30T06:20:33.897Z,70.58
2019-04-30T06:23:04.802Z,70.20
2019-04-30T06:25:52.889Z,70.14
2019-04-30T06:28:09.744Z,69.79
2019-04-30T06:30:41.186Z,69.45
2019-04-30T06:33:12.564Z,68.72
2019-04-30T06:35:43.960Z,68.30
2019-04-30T06:38:15.371Z,68.30
2019-04-30T06:40:48.740Z,68.29
2019-04-30T06:43:20.015Z,68.00
2019-04-30T06:45:51.209Z,67.88
2019-04-30T06:48:22.620Z,67.78
2019-04-30T06:50:54.054Z,68.21
2019-04-30T06:53:24.921Z,68.50
2019-04-30T06:55:56.250Z,68.52
2019-04-30T06:58:29.122Z,68.27
2019-04-30T07:01:00.633Z,67.81
2019-04-30T07:03:31.490Z,68.03
2019-04-30T07:06:02.601Z,67.72
2019-04-30T07:08:39.835Z,66.19
2019-04-30T07:11:26.438Z,66.10
2019-04-30T07:14:00.006Z,65.62
2019-04-30T07:16:30.982Z,65.82
2019-04-30T07:19:01.817Z,65.95
2019-04-30T07:21:36.565Z,65.87
2019-04-30T07:24:06.136Z,64.39
2019-04-30T07:26:38.892Z,62.78
2019-04-30T07:29:10.496Z,62.17
2019-04-30T07:31:41.979Z,63.20
2019-04-30T07:34:13.386Z,62.50
2019-04-30T07:36:49.130Z,62.64
2019-04-30T07:39:19.197Z,62.89
2019-04-30T07:41:50.676Z,63.50
2019-04-30T07:44:31.089Z,63.61
2019-04-30T07:46:55.191Z,62.50
2019-04-30T07:49:45.949Z,62.39
2019-04-30T07:52:01.499Z,62.17
2019-04-30T07:54:32.647Z,61.12
2019-04-30T07:57:03.945Z,61.33
2019-04-30T07:59:36.433Z,61.87
2019-04-30T08:02:13.820Z,59.70
2019-04-30T08:04:45.354Z,60.06
2019-04-30T08:07:16.727Z,60.75
2019-04-30T08:09:49.321Z,60.15
2019-04-30T08:12:29.816Z,59.93
2019-04-30T08:14:54.151Z,59.86
2019-04-30T08:17:25.491Z,59.31
2019-04-30T08:19:58.633Z,59.35
2019-04-30T08:22:29.910Z,59.04
2019-04-30T08:25:00.710Z,59.61
2019-04-30T08:27:31.749Z,59.26
2019-04-30T08:30:03.100Z,59.30
2019-04-30T08:32:35.095Z,58.37
2019-04-30T08:35:09.396Z,58.36
2019-04-30T08:37:40.658Z,58.12
2019-04-30T08:40:12.068Z,57.81
2019-04-30T08:42:42.764Z,58.03
2019-04-30T08:45:13.880Z,57.97
2019-04-30T08:47:44.611Z,58.52
2019-04-30T08:50:15.728Z,57.62
2019-04-30T08:52:49.030Z,58.34
2019-04-30T08:55:22.440Z,57.74
2019-04-30T08:58:06.577Z,57.00
2019-04-30T09:00:29.597Z,55.79
2019-04-30T09:03:00.574Z,55.28
2019-04-30T09:05:38.529Z,54.91
2019-04-30T09:08:11.228Z,55.23
2019-04-30T09:10:42.643Z,55.07
2019-04-30T09:13:13.978Z,55.73
2019-04-30T09:15:44.810Z,54.53
2019-04-30T09:18:16.030Z,53.09
2019-04-30T09:20:49.380Z,55.43
2019-04-30T09:23:20.559Z,53.57
2019-04-30T09:25:51.905Z,53.26
2019-04-30T09:28:23.271Z,53.92
2019-04-30T09:30:54.725Z,52.46
2019-04-30T09:33:26.112Z,52.14
2019-04-30T09:35:59.413Z,51.40
2019-04-30T09:38:30.458Z,51.81
2019-04-30T09:41:01.252Z,51.76
2019-04-30T09:43:32.432Z,51.11
2019-04-30T09:46:15.499Z,51.80
2019-04-30T09:48:38.621Z,51.36
2019-04-30T09:51:11.592Z,52.25
2019-04-30T09:53:55.390Z,52.88
2019-04-30T09:56:16.591Z,51.95
2019-04-30T09:58:49.241Z,50.41
2019-04-30T10:01:22.139Z,48.87
2019-04-30T10:03:54.156Z,49.19
2019-04-30T10:06:37.147Z,49.13
2019-04-30T10:08:59.739Z,49.75
2019-04-30T10:11:32.841Z,50.70
2019-04-30T10:14:04.409Z,51.04
2019-04-30T10:16:36.725Z,51.21
2019-04-30T10:19:10.115Z,50.07
2019-04-30T10:21:42.347Z,51.20
2019-04-30T10:24:15.789Z,51.07
2019-04-30T10:26:46.756Z,50.83
2019-04-30T10:29:18.878Z,51.01
2019-04-30T10:31:50.962Z,51.68
2019-04-30T10:34:22.444Z,50.68
2019-04-30T10:36:53.809Z,50.75
2019-04-30T10:39:25.259Z,50.80
2019-04-30T10:41:56.791Z,51.27
2019-04-30T10:44:29.683Z,50.36
2019-04-30T10:47:00.459Z,52.24
2019-04-30T10:49:31.816Z,52.40
2019-04-30T10:52:03.161Z,53.17
2019-04-30T10:54:35.502Z,52.43
2019-04-30T10:57:06.273Z,52.71
2019-04-30T10:59:37.353Z,53.52
2019-04-30T11:02:09.108Z,52.63
2019-04-30T11:04:40.661Z,51.89
2019-04-30T11:07:11.987Z,51.38
2019-04-30T11:09:43.320Z,51.56
2019-04-30T11:12:14.112Z,51.84
2019-04-30T11:14:45.201Z,51.70
2019-04-30T11:17:16.711Z,51.41
2019-04-30T11:19:49.255Z,52.40
2019-04-30T11:22:20.998Z,51.29
2019-04-30T11:24:59.022Z,51.71
2019-04-30T11:27:24.804Z,51.39
2019-04-30T11:30:01.492Z,51.17
2019-04-30T11:32:30.773Z,51.11
2019-04-30T11:35:02.261Z,51.14
2019-04-30T11:37:33.832Z,51.49
2019-04-30T11:40:08.098Z,50.86
2019-04-30T11:42:39.470Z,51.31
2019-04-30T11:45:11.410Z,51.32
2019-04-30T11:47:53.088Z,51.50
2019-04-30T11:50:15.999Z,51.44
2019-04-30T11:52:47.430Z,51.27
2019-04-30T11:55:19.349Z,51.62
2019-04-30T11:57:50.615Z,51.48
2019-04-30T12:00:23.648Z,50.57
2019-04-30T12:02:55.110Z,51.57
2019-04-30T12:05:25.865Z,50.91
2019-04-30T12:08:14.615Z,51.71
2019-04-30T12:10:47.503Z,51.72
2019-04-30T12:13:30.267Z,51.40
2019-04-30T12:16:01.755Z,51.37
2019-04-30T12:18:33.360Z,50.92
2019-04-30T12:21:04.210Z,51.19
2019-04-30T12:23:35.274Z,51.61
2019-04-30T12:26:06.153Z,51.47
2019-04-30T12:28:37.213Z,51.27
2019-04-30T12:31:09.775Z,49.82
2019-04-30T12:33:40.877Z,52.71
2019-04-30T12:36:12.165Z,52.84
2019-04-30T12:38:43.662Z,53.80
2019-04-30T12:41:15.112Z,53.43
2019-04-30T12:43:46.460Z,53.50
2019-04-30T12:46:21.036Z,53.07
2019-04-30T12:48:51.721Z,53.23
2019-04-30T12:51:31.866Z,52.92
2019-04-30T12:54:04.909Z,52.52
2019-04-30T12:56:37.768Z,52.70
2019-04-30T12:59:09.081Z,51.81
2019-04-30T13:01:40.474Z,52.54
2019-04-30T13:04:11.874Z,52.51
2019-04-30T13:06:42.986Z,51.70
2019-04-30T13:09:15.390Z,51.74
2019-04-30T13:11:48.239Z,52.42
2019-04-30T13:14:21.194Z,52.50
2019-04-30T13:16:52.700Z,52.10
2019-04-30T13:19:24.098Z,52.23
2019-04-30T13:21:54.894Z,52.54
2019-04-30T13:24:26.058Z,53.03
2019-04-30T13:26:56.819Z,52.52
2019-04-30T13:29:29.419Z,53.24
2019-04-30T13:32:00.812Z,53.15
2019-04-30T13:34:51.263Z,53.21
2019-04-30T13:37:22.258Z,53.10
2019-04-30T13:39:57.631Z,52.90
2019-04-30T13:42:30.312Z,52.88
2019-04-30T13:45:01.933Z,52.74
2019-04-30T13:47:33.318Z,53.31
2019-04-30T13:50:05.147Z,53.34
2019-04-30T13:52:36.615Z,52.88
2019-04-30T13:55:10.671Z,53.81
2019-04-30T13:57:41.131Z,53.72
2019-04-30T14:00:14.036Z,54.13
2019-04-30T14:02:47.208Z,54.58
2019-04-30T14:05:18.752Z,54.24
2019-04-30T14:07:59.729Z,54.76
2019-04-30T14:10:32.395Z,55.40
2019-04-30T14:13:04.419Z,55.27
2019-04-30T14:15:36.428Z,55.65
2019-04-30T14:18:09.374Z,55.22
2019-04-30T14:20:41.781Z,54.84
2019-04-30T14:23:13.300Z,55.09
2019-04-30T14:25:55.813Z,55.21
2019-04-30T14:28:16.803Z,55.60
2019-04-30T14:30:48.151Z,56.01
2019-04-30T14:33:26.333Z,55.86
2019-04-30T14:35:52.569Z,56.26
2019-04-30T14:38:23.926Z,56.73
2019-04-30T14:40:55.807Z,56.97
2019-04-30T14:43:29.922Z,56.82
2019-04-30T14:46:10.294Z,57.31
2019-04-30T14:48:47.916Z,57.83
2019-04-30T14:51:19.547Z,57.53
2019-04-30T14:53:51.876Z,58.14
2019-04-30T14:56:23.922Z,58.03
2019-04-30T14:58:56.555Z,58.99
2019-04-30T15:01:38.677Z,59.06
2019-04-30T15:04:10.683Z,59.13
2019-04-30T15:06:42.234Z,59.63
2019-04-30T15:09:14.148Z,60.19
2019-04-30T15:11:45.603Z,61.11
2019-04-30T15:14:16.483Z,61.13
2019-04-30T15:16:47.782Z,61.96
2019-04-30T15:19:18.574Z,62.38
2019-04-30T15:21:49.721Z,63.05
2019-04-30T15:24:22.089Z,63.29
2019-04-30T15:26:57.664Z,63.61
2019-04-30T15:29:25.195Z,64.40
2019-04-30T15:31:56.607Z,64.26
2019-04-30T15:34:29.362Z,64.17
2019-04-30T15:37:01.029Z,64.45
2019-04-30T15:39:33.899Z,65.21
2019-04-30T15:42:05.287Z,65.64
2019-04-30T15:44:40.104Z,65.43
2019-04-30T15:47:09.925Z,65.62
2019-04-30T15:49:40.619Z,66.12
2019-04-30T15:52:11.833Z,66.66
2019-04-30T15:54:43.223Z,66.41
2019-04-30T15:57:14.617Z,66.88
2019-04-30T15:59:45.973Z,66.47
2019-04-30T16:02:18.951Z,66.43
2019-04-30T16:05:09.296Z,66.22
2019-04-30T16:07:51.556Z,66.10
2019-04-30T16:10:41.544Z,66.41
2019-04-30T16:13:19.390Z,66.58
2019-04-30T16:15:50.600Z,66.60
2019-04-30T16:18:22.269Z,65.97
2019-04-30T16:20:59.438Z,65.65
2019-04-30T16:23:32.095Z,65.97
2019-04-30T16:26:03.888Z,66.15
2019-04-30T16:28:36.453Z,65.64
2019-04-30T16:31:08.154Z,65.58
2019-04-30T16:33:40.151Z,66.00
2019-04-30T16:36:11.584Z,66.44
2019-04-30T16:38:43.438Z,66.65
2019-04-30T16:41:14.228Z,66.37
2019-04-30T16:43:45.438Z,66.93
2019-04-30T16:46:16.812Z,66.80
2019-04-30T16:48:49.286Z,66.47
2019-04-30T16:51:21.352Z,66.71
2019-04-30T16:53:52.796Z,67.12
2019-04-30T16:56:23.675Z,66.52
2019-04-30T16:59:02.438Z,66.20
2019-04-30T17:01:34.850Z,65.96
2019-04-30T17:04:20.144Z,66.23
2019-04-30T17:06:53.194Z,66.54
2019-04-30T17:09:42.404Z,66.37
2019-04-30T17:12:19.699Z,66.62
2019-04-30T17:14:52.974Z,67.08
2019-04-30T17:17:24.335Z,67.08
2019-04-30T17:19:55.768Z,67.15
2019-04-30T17:22:27.170Z,67.00
2019-04-30T17:24:58.040Z,67.36
2019-04-30T17:27:29.468Z,67.66
2019-04-30T17:30:01.701Z,67.50
2019-04-30T17:32:34.293Z,67.71
2019-04-30T17:35:09.019Z,67.62
2019-04-30T17:37:40.644Z,68.09
2019-04-30T17:40:13.166Z,67.61
2019-04-30T17:42:43.995Z,67.67
2019-04-30T17:45:15.069Z,68.68
2019-04-30T17:47:46.695Z,68.75
2019-04-30T17:50:18.753Z,69.33
2019-04-30T17:52:50.419Z,69.42
2019-04-30T17:55:21.834Z,69.38
2019-04-30T17:57:54.990Z,69.74
2019-04-30T18:00:29.285Z,70.03
2019-04-30T18:03:00.835Z,69.52
2019-04-30T18:05:32.258Z,69.62
2019-04-30T18:08:03.602Z,69.67
2019-04-30T18:10:35.803Z,69.39
2019-04-30T18:13:07.330Z,68.99
2019-04-30T18:15:38.728Z,69.04
2019-04-30T18:18:23.779Z,68.98
2019-04-30T18:21:02.642Z,69.02
2019-04-30T18:23:51.796Z,69.38
2019-04-30T18:26:23.180Z,69.08
2019-04-30T18:28:55.588Z,69.72
2019-04-30T18:31:27.196Z,69.78
2019-04-30T18:33:59.350Z,70.44
2019-04-30T18:36:31.109Z,70.62
2019-04-30T18:39:01.956Z,70.92
2019-04-30T18:41:34.579Z,71.94
2019-04-30T18:44:05.417Z,71.65
2019-04-30T18:46:36.635Z,72.14
2019-04-30T18:49:08.062Z,71.23
2019-04-30T18:51:42.709Z,70.98
2019-04-30T18:54:12.747Z,71.11
2019-04-30T18:56:44.228Z,71.61
2019-04-30T18:59:15.549Z,71.98
2019-04-30T19:01:47.073Z,72.11
2019-04-30T19:04:18.953Z,71.96
2019-04-30T19:06:52.334Z,71.62
2019-04-30T19:09:40.352Z,71.83
2019-04-30T19:12:19.533Z,72.08
2019-04-30T19:15:08.601Z,72.30
2019-04-30T19:17:41.658Z,72.72
2019-04-30T19:20:18.786Z,72.57
2019-04-30T19:22:50.307Z,72.72
2019-04-30T19:25:21.115Z,72.25
2019-04-30T19:27:53.291Z,72.50
2019-04-30T19:30:24.721Z,72.13
2019-04-30T19:32:56.164Z,72.32
2019-04-30T19:35:27.560Z,72.36
2019-04-30T19:37:59.298Z,72.00
2019-04-30T19:40:30.763Z,71.98
2019-04-30T19:43:03.770Z,72.23
2019-04-30T19:45:35.958Z,72.18
2019-04-30T19:48:09.011Z,72.34
2019-04-30T19:50:43.518Z,72.58
2019-04-30T19:53:15.949Z,72.37
2019-04-30T19:55:49.126Z,72.27
2019-04-30T19:58:29.535Z,72.62
2019-04-30T20:00:53.528Z,72.72
2019-04-30T20:03:25.032Z,72.68
2019-04-30T20:05:58.587Z,72.90
2019-04-30T20:08:30.171Z,73.08
2019-04-30T20:11:01.553Z,73.43
2019-04-30T20:13:37.068Z,72.94
2019-04-30T20:16:05.175Z,73.15
2019-04-30T20:18:36.703Z,72.85
2019-04-30T20:21:09.637Z,72.89
2019-04-30T20:23:42.152Z,72.98
2019-04-30T20:26:13.643Z,73.21
2019-04-30T20:28:44.983Z,73.23
2019-04-30T20:31:16.382Z,72.96
2019-04-30T20:33:48.981Z,73.54
2019-04-30T20:36:20.495Z,73.56
2019-04-30T20:38:54.490Z,73.31
2019-04-30T20:41:28.579Z,73.22
2019-04-30T20:44:00.123Z,73.05
2019-04-30T20:46:35.181Z,73.18
2019-04-30T20:49:04.655Z,72.88
2019-04-30T20:51:35.989Z,72.91
2019-04-30T20:54:09.130Z,72.95
2019-04-30T20:56:40.558Z,73.13
2019-04-30T20:59:11.970Z,72.90
2019-04-30T21:01:43.354Z,73.30
2019-04-30T21:04:15.943Z,73.38
2019-04-30T21:06:49.514Z,73.25
2019-04-30T21:09:20.405Z,73.17
2019-04-30T21:11:51.774Z,73.41
2019-04-30T21:14:23.143Z,73.34
2019-04-30T21:16:54.529Z,72.77
2019-04-30T21:19:25.979Z,72.97
2019-04-30T21:21:57.316Z,73.44
2019-04-30T21:24:28.704Z,73.72
2019-04-30T21:27:00.110Z,73.22
2019-04-30T21:29:31.614Z,73.21
2019-04-30T21:32:16.839Z,73.24
2019-04-30T21:34:54.479Z,73.28
2019-04-30T21:37:26.163Z,73.04
2019-04-30T21:39:58.597Z,73.03
2019-04-30T21:42:30.163Z,72.98
2019-04-30T21:45:01.572Z,73.24
2019-04-30T21:47:34.016Z,73.52
2019-04-30T21:50:09.958Z,73.64
2019-04-30T21:52:40.662Z,73.57
2019-04-30T21:55:12.024Z,73.39
2019-04-30T21:57:44.485Z,73.39
2019-04-30T22:00:18.532Z,73.08
2019-04-30T22:02:51.506Z,73.02
2019-04-30T22:05:22.886Z,73.21
2019-04-30T22:07:54.329Z,73.29
2019-04-30T22:10:27.056Z,73.19
2019-04-30T22:12:58.725Z,73.33
2019-04-30T22:15:30.216Z,73.44
2019-04-30T22:18:01.518Z,73.57
2019-04-30T22:20:32.981Z,73.87
2019-04-30T22:23:04.385Z,73.80
2019-04-30T22:25:35.779Z,73.87
2019-04-30T22:28:07.166Z,74.12
2019-04-30T22:30:39.129Z,74.08
2019-04-30T22:33:10.875Z,74.02
2019-04-30T22:35:50.232Z,74.18
2019-04-30T22:38:32.207Z,73.92
2019-04-30T22:41:03.537Z,73.90
2019-04-30T22:43:34.894Z,74.12
2019-04-30T22:46:09.624Z,74.04
2019-04-30T22:48:40.832Z,74.07
2019-04-30T22:51:12.197Z,74.21
2019-04-30T22:53:43.573Z,74.48
2019-04-30T22:56:16.118Z,74.52
2019-04-30T22:58:47.449Z,74.66
2019-04-30T23:01:20.510Z,74.80
2019-04-30T23:03:53.414Z,74.37
2019-04-30T23:06:24.816Z,74.52
2019-04-30T23:08:56.166Z,74.49
2019-04-30T23:11:27.590Z,74.69
2019-04-30T23:13:58.975Z,74.68
2019-04-30T23:16:30.415Z,74.98
2019-04-30T23:19:01.805Z,74.95
2019-04-30T23:21:33.175Z,74.88
2019-04-30T23:24:04.677Z,74.68
2019-04-30T23:26:36.077Z,74.79
2019-04-30T23:29:07.484Z,75.08
2019-04-30T23:31:38.893Z,75.40
2019-04-30T23:34:17.779Z,75.41
2019-04-30T23:36:44.409Z,75.52
2019-04-30T23:39:15.791Z,75.46
2019-04-30T23:41:47.160Z,75.98
2019-04-30T23:44:18.605Z,76.12
2019-04-30T23:46:50.062Z,75.72
2019-04-30T23:49:21.462Z,75.65
2019-04-30T23:51:52.920Z,75.58
2019-04-30T23:54:24.308Z,75.58
2019-04-30T23:56:55.783Z,75.68
2019-04-30T23:59:27.164Z,75.91
